createdAt,value
2022-09-17T00:00:50.949Z,3.20
2022-09-17T00:03:18.052Z,3.15
2022-09-17T00:05:45.090Z,3.47
2022-09-17T00:08:15.099Z,3.50
2022-09-17T00:10:44.102Z,4.18
2022-09-17T00:13:11.696Z,2.60
2022-09-17T00:15:43.830Z,3.05
2022-09-17T00:18:11.487Z,2.90
2022-09-17T00:20:43.493Z,3.40
2022-09-17T00:23:11.493Z,2.92
2022-09-17T00:25:43.564Z,3.33
2022-09-17T00:28:11.404Z,2.67
2022-09-17T00:30:43.836Z,3.10
2022-09-17T00:33:16.812Z,3.47
2022-09-17T00:35:44.502Z,3.60
2022-09-17T00:38:11.533Z,3.67
2022-09-17T00:40:39.029Z,2.70
2022-09-17T00:43:12.636Z,3.22
2022-09-17T00:45:40.102Z,3.55
2022-09-17T00:48:07.077Z,3.33
2022-09-17T00:50:42.339Z,2.60
2022-09-17T00:53:16.709Z,2.53
2022-09-17T00:56:05.859Z,3.75
2022-09-17T00:58:40.956Z,3.28
2022-09-17T01:01:08.244Z,2.85
2022-09-17T01:03:35.248Z,3.00
2022-09-17T01:06:23.682Z,3.20
2022-09-17T01:09:02.417Z,3.22
2022-09-17T01:11:51.261Z,3.53
2022-09-17T01:14:45.895Z,3.83
2022-09-17T01:17:25.945Z,3.45
2022-09-17T01:20:14.233Z,3.10
2022-09-17T01:23:03.030Z,3.35
2022-09-17T01:25:50.774Z,2.70
2022-09-17T01:28:46.352Z,3.37
2022-09-17T01:31:31.774Z,2.67
2022-09-17T01:34:05.260Z,3.28
2022-09-17T01:37:03.510Z,2.50
2022-09-17T01:39:50.253Z,3.22
2022-09-17T01:42:25.509Z,2.65
2022-09-17T01:44:54.978Z,3.22
2022-09-17T01:47:31.827Z,3.37
2022-09-17T01:50:05.347Z,2.87
2022-09-17T01:52:36.382Z,2.53
2022-09-17T01:55:07.187Z,2.37
2022-09-17T01:57:40.853Z,2.90
2022-09-17T02:00:12.136Z,3.05
2022-09-17T02:02:45.492Z,2.62
2022-09-17T02:05:21.173Z,2.97
2022-09-17T02:07:56.200Z,3.58
2022-09-17T02:10:28.947Z,2.65
2022-09-17T02:13:09.139Z,4.10
2022-09-17T02:15:43.841Z,3.80
2022-09-17T02:18:23.229Z,3.28
2022-09-17T02:20:55.300Z,3.15
2022-09-17T02:23:29.929Z,2.97
2022-09-17T02:26:04.730Z,3.83
2022-09-17T02:29:02.583Z,2.65
2022-09-17T02:31:29.675Z,2.45
2022-09-17T02:34:01.721Z,3.22
2022-09-17T02:36:28.966Z,3.85
2022-09-17T02:39:01.811Z,4.03
2022-09-17T02:41:42.396Z,3.97
2022-09-17T02:44:18.715Z,2.78
2022-09-17T02:46:57.484Z,4.12
2022-09-17T02:49:42.906Z,4.00
2022-09-17T02:52:24.798Z,3.10
2022-09-17T02:55:10.718Z,3.80
2022-09-17T02:57:46.626Z,3.47
2022-09-17T03:00:19.371Z,3.75
2022-09-17T03:02:51.606Z,3.40
2022-09-17T03:05:22.217Z,3.83
2022-09-17T03:07:49.094Z,3.87
2022-09-17T03:10:16.303Z,3.78
2022-09-17T03:12:43.475Z,3.60
2022-09-17T03:15:10.613Z,4.22
2022-09-17T03:17:37.518Z,2.90
2022-09-17T03:20:05.498Z,3.42
2022-09-17T03:22:32.315Z,3.20
2022-09-17T03:24:59.172Z,3.58
2022-09-17T03:27:25.982Z,3.50
2022-09-17T03:29:52.865Z,3.37
2022-09-17T03:32:19.722Z,3.22
2022-09-17T03:34:47.147Z,3.62
2022-09-17T03:37:14.303Z,4.55
2022-09-17T03:39:41.092Z,4.43
2022-09-17T03:42:07.982Z,3.92
2022-09-17T03:44:34.865Z,3.22
2022-09-17T03:47:01.632Z,3.28
2022-09-17T03:49:28.372Z,4.37
2022-09-17T03:51:55.120Z,3.37
2022-09-17T03:54:21.934Z,3.83
2022-09-17T03:56:48.672Z,3.62
2022-09-17T03:59:15.529Z,2.83
2022-09-17T04:01:42.537Z,3.78
2022-09-17T04:04:09.699Z,3.80
2022-09-17T04:06:36.409Z,4.07
2022-09-17T04:09:05.154Z,3.60
2022-09-17T04:11:31.922Z,3.80
2022-09-17T04:13:59.143Z,3.62
2022-09-17T04:16:26.104Z,3.45
2022-09-17T04:18:52.885Z,4.25
2022-09-17T04:21:19.995Z,4.00
2022-09-17T04:23:46.793Z,2.58
2022-09-17T04:26:13.721Z,2.60
2022-09-17T04:28:40.623Z,3.50
2022-09-17T04:31:07.599Z,3.40
2022-09-17T04:33:34.749Z,4.22
2022-09-17T04:36:01.610Z,3.70
2022-09-17T04:38:28.400Z,3.60
2022-09-17T04:40:57.450Z,4.05
2022-09-17T04:43:24.313Z,3.80
2022-09-17T04:45:51.048Z,3.20
2022-09-17T04:48:18.258Z,3.45
2022-09-17T04:50:45.025Z,4.65
2022-09-17T04:53:12.703Z,2.97
2022-09-17T04:55:39.815Z,3.30
2022-09-17T04:58:06.540Z,3.28
2022-09-17T05:00:34.040Z,4.75
2022-09-17T05:03:01.030Z,4.47
2022-09-17T05:05:27.750Z,5.47
2022-09-17T05:07:54.537Z,8.38
2022-09-17T05:10:23.243Z,7.80
2022-09-17T05:12:55.342Z,8.18
2022-09-17T05:15:24.013Z,4.57
2022-09-17T05:17:50.883Z,4.20
2022-09-17T05:20:18.016Z,4.60
2022-09-17T05:22:47.344Z,3.25
2022-09-17T05:25:16.041Z,3.60
2022-09-17T05:27:42.999Z,4.10
2022-09-17T05:30:10.494Z,4.97
2022-09-17T05:32:37.616Z,5.53
2022-09-17T05:35:06.018Z,6.80
2022-09-17T05:37:33.024Z,5.87
2022-09-17T05:39:59.998Z,5.85
2022-09-17T05:42:26.836Z,5.30
2022-09-17T05:44:53.642Z,5.00
2022-09-17T05:47:20.414Z,4.53
2022-09-17T05:49:47.150Z,4.35
2022-09-17T05:52:13.860Z,3.90
2022-09-17T05:54:40.641Z,4.35
2022-09-17T05:57:07.722Z,4.07
2022-09-17T05:59:35.484Z,4.55
2022-09-17T06:02:02.446Z,3.92
2022-09-17T06:04:32.767Z,4.80
2022-09-17T06:07:07.520Z,4.00
2022-09-17T06:09:37.039Z,5.20
2022-09-17T06:12:05.385Z,4.70
2022-09-17T06:14:32.180Z,5.03
2022-09-17T06:16:58.948Z,4.28
2022-09-17T06:19:25.651Z,4.20
2022-09-17T06:21:52.459Z,3.83
2022-09-17T06:24:19.329Z,4.32
2022-09-17T06:26:46.060Z,3.97
2022-09-17T06:29:15.332Z,3.92
2022-09-17T06:31:45.004Z,4.00
2022-09-17T06:36:38.836Z,4.10
2022-09-17T06:39:05.850Z,3.55
2022-09-17T06:41:33.277Z,3.70
2022-09-17T06:44:00.367Z,3.20
2022-09-17T06:46:27.851Z,4.07
2022-09-17T06:48:54.760Z,3.50
2022-09-17T06:51:22.802Z,3.83
2022-09-17T06:53:49.805Z,4.00
2022-09-17T06:56:17.690Z,4.10
2022-09-17T06:58:44.653Z,3.47
2022-09-17T07:01:12.524Z,3.80
2022-09-17T07:03:39.749Z,3.83
2022-09-17T07:06:12.856Z,3.83
2022-09-17T07:08:39.707Z,3.75
2022-09-17T07:11:06.681Z,4.05
2022-09-17T07:13:33.870Z,4.03
2022-09-17T07:16:02.807Z,3.60
2022-09-17T07:18:30.303Z,3.45
2022-09-17T07:20:59.171Z,3.75
2022-09-17T07:23:28.401Z,4.23
2022-09-17T07:25:57.466Z,4.05
2022-09-17T07:28:25.456Z,3.72
2022-09-17T07:30:53.531Z,3.72
2022-09-17T07:33:24.881Z,3.70
2022-09-17T07:36:00.041Z,3.90
2022-09-17T07:38:28.416Z,3.62
2022-09-17T07:41:00.170Z,3.92
2022-09-17T07:43:28.637Z,3.92
2022-09-17T07:45:58.196Z,3.85
2022-09-17T07:48:26.154Z,4.20
2022-09-17T07:50:52.974Z,4.53
2022-09-17T07:53:19.812Z,3.28
2022-09-17T07:55:53.415Z,3.87
2022-09-17T07:58:21.907Z,3.92
2022-09-17T08:00:49.210Z,3.85
2022-09-17T08:03:16.611Z,3.75
2022-09-17T08:05:43.508Z,3.35
2022-09-17T08:08:10.349Z,3.60
2022-09-17T08:10:37.241Z,2.92
2022-09-17T08:13:04.154Z,2.90
2022-09-17T08:15:31.115Z,3.03
2022-09-17T08:17:58.033Z,2.95
2022-09-17T08:20:26.669Z,3.58
2022-09-17T08:23:03.095Z,3.05
2022-09-17T08:25:30.019Z,2.67
2022-09-17T08:27:56.927Z,2.85
2022-09-17T08:30:24.199Z,2.95
2022-09-17T08:32:51.217Z,2.95
2022-09-17T08:35:18.129Z,2.83
2022-09-17T08:37:45.187Z,3.10
2022-09-17T08:40:23.008Z,3.75
2022-09-17T08:43:00.767Z,3.28
2022-09-17T08:45:27.999Z,3.03
2022-09-17T08:48:03.070Z,3.50
2022-09-17T08:50:32.884Z,3.47
2022-09-17T08:52:59.914Z,3.75
2022-09-17T08:55:35.316Z,3.12
2022-09-17T08:58:27.704Z,3.25
2022-09-17T09:01:19.154Z,3.92
2022-09-17T09:04:03.333Z,3.05
2022-09-17T09:06:38.076Z,3.55
2022-09-17T09:09:29.088Z,4.07
2022-09-17T09:12:06.884Z,3.25
2022-09-17T09:14:47.321Z,2.95
2022-09-17T09:17:18.094Z,3.58
2022-09-17T09:19:46.906Z,3.40
2022-09-17T09:22:42.158Z,2.80
2022-09-17T09:25:37.241Z,3.62
2022-09-17T09:28:29.643Z,2.97
2022-09-17T09:31:40.762Z,3.42
2022-09-17T09:34:09.512Z,3.05
2022-09-17T09:36:39.303Z,2.95
2022-09-17T09:41:54.631Z,2.40
2022-09-17T09:44:25.545Z,2.95
2022-09-17T09:47:12.595Z,2.97
2022-09-17T09:50:08.322Z,3.22
2022-09-17T09:52:59.916Z,3.37
2022-09-17T09:55:42.473Z,3.12
2022-09-17T09:58:44.072Z,3.05
2022-09-17T10:01:22.515Z,3.33
2022-09-17T10:03:52.419Z,3.03
2022-09-17T10:06:20.124Z,2.55
2022-09-17T10:08:55.620Z,3.42
2022-09-17T10:11:27.941Z,3.12
2022-09-17T10:14:19.790Z,2.92
2022-09-17T10:16:46.611Z,2.35
2022-09-17T10:19:20.122Z,2.60
2022-09-17T10:21:47.066Z,2.97
2022-09-17T10:24:34.330Z,2.80
2022-09-17T10:27:04.805Z,3.75
2022-09-17T10:29:32.178Z,3.97
2022-09-17T10:31:59.565Z,3.00
2022-09-17T10:34:27.373Z,3.22
2022-09-17T10:36:56.769Z,3.25
2022-09-17T10:39:44.323Z,3.28
2022-09-17T10:42:18.774Z,2.62
2022-09-17T10:44:56.695Z,3.15
2022-09-17T10:47:29.133Z,2.62
2022-09-17T10:50:08.536Z,3.42
2022-09-17T10:52:38.173Z,3.97
2022-09-17T10:55:08.544Z,3.72
2022-09-17T10:58:08.856Z,3.30
2022-09-17T11:00:39.139Z,3.28
2022-09-17T11:03:43.894Z,3.17
2022-09-17T11:06:45.494Z,3.67
2022-09-17T11:09:28.277Z,3.05
2022-09-17T11:12:24.165Z,3.28
2022-09-17T11:14:54.685Z,1.83
2022-09-17T11:17:24.330Z,1.30
2022-09-17T11:22:34.101Z,1.48
2022-09-17T11:25:43.818Z,1.85
2022-09-17T11:31:08.730Z,2.33
2022-09-17T11:33:47.671Z,2.12
2022-09-17T11:36:22.080Z,2.72
2022-09-17T11:38:51.411Z,2.65
2022-09-17T11:41:23.190Z,2.67
2022-09-17T11:44:13.540Z,2.00
2022-09-17T11:46:51.600Z,3.65
2022-09-17T11:49:33.932Z,2.97
2022-09-17T11:52:07.136Z,3.12
2022-09-17T11:54:39.751Z,4.28
2022-09-17T11:57:19.691Z,3.45
2022-09-17T11:59:55.445Z,3.42
2022-09-17T12:02:43.308Z,2.92
2022-09-17T12:05:18.686Z,2.40
2022-09-17T12:08:14.819Z,1.55
2022-09-17T12:11:17.402Z,1.80
2022-09-17T12:13:51.982Z,1.60
2022-09-17T12:16:34.203Z,1.62
2022-09-17T12:19:04.653Z,1.73
2022-09-17T12:21:39.552Z,1.45
2022-09-17T12:24:26.111Z,1.90
2022-09-17T12:27:18.415Z,2.53
2022-09-17T12:30:00.440Z,2.60
2022-09-17T12:32:53.368Z,2.75
2022-09-17T12:35:22.923Z,2.62
2022-09-17T12:38:17.874Z,2.70
2022-09-17T12:41:21.854Z,3.05
2022-09-17T12:44:07.932Z,2.45
2022-09-17T12:47:00.251Z,2.90
2022-09-17T12:49:38.746Z,2.70
2022-09-17T12:52:10.993Z,2.50
2022-09-17T12:55:05.483Z,2.67
2022-09-17T12:57:49.143Z,2.40
2022-09-17T13:00:17.427Z,2.20
2022-09-17T13:03:02.944Z,2.40
2022-09-17T13:05:47.782Z,2.58
2022-09-17T13:08:23.593Z,1.85
2022-09-17T13:11:08.902Z,2.45
2022-09-17T13:14:05.644Z,2.53
2022-09-17T13:16:43.747Z,2.33
2022-09-17T13:19:40.394Z,3.33
2022-09-17T13:22:13.973Z,2.92
2022-09-17T13:24:44.765Z,2.55
2022-09-17T13:27:23.443Z,3.33
2022-09-17T13:29:56.204Z,3.58
2022-09-17T13:32:35.234Z,2.30
2022-09-17T13:35:14.673Z,2.45
2022-09-17T13:37:49.111Z,2.10
2022-09-17T13:40:26.824Z,2.33
2022-09-17T13:43:02.949Z,2.70
2022-09-17T13:45:30.268Z,2.00
2022-09-17T13:47:59.999Z,2.40
2022-09-17T13:52:56.229Z,1.85
2022-09-17T13:55:32.298Z,2.40
2022-09-17T13:57:59.469Z,1.73
2022-09-17T14:00:48.126Z,1.60
2022-09-17T14:03:48.952Z,0.88
2022-09-17T14:06:15.745Z,1.30
2022-09-17T14:08:45.797Z,1.95
2022-09-17T14:11:27.775Z,1.10
2022-09-17T14:13:55.484Z,1.05
2022-09-17T14:16:37.641Z,1.40
2022-09-17T14:19:17.125Z,1.25
2022-09-17T14:22:16.465Z,1.67
2022-09-17T14:24:44.341Z,1.77
2022-09-17T14:27:16.315Z,1.10
2022-09-17T14:30:01.425Z,1.42
2022-09-17T14:33:07.139Z,0.77
2022-09-17T14:35:51.003Z,1.10
2022-09-17T14:38:37.962Z,1.00
2022-09-17T14:41:22.426Z,1.20
2022-09-17T14:44:02.208Z,1.10
2022-09-17T14:49:37.633Z,1.37
2022-09-17T14:52:38.841Z,1.02
2022-09-17T14:55:26.741Z,1.05
2022-09-17T14:57:57.948Z,1.02
2022-09-17T15:00:28.498Z,1.30
2022-09-17T15:02:59.785Z,0.80
2022-09-17T15:05:33.658Z,0.93
2022-09-17T15:08:10.245Z,0.80
2022-09-17T15:10:59.860Z,1.20
2022-09-17T15:13:35.959Z,1.00
2022-09-17T15:16:05.147Z,0.90
2022-09-17T15:18:40.399Z,1.35
2022-09-17T15:21:41.618Z,1.15
2022-09-17T15:24:20.836Z,1.50
2022-09-17T15:26:52.518Z,1.45
2022-09-17T15:29:27.255Z,1.40
2022-09-17T15:31:54.496Z,1.67
2022-09-17T15:34:22.833Z,1.30
2022-09-17T15:37:19.320Z,1.02
2022-09-17T15:39:55.100Z,1.10
2022-09-17T15:42:40.136Z,1.10
2022-09-17T15:45:19.923Z,1.62
2022-09-17T15:50:40.861Z,1.98
2022-09-17T15:55:43.931Z,2.22
2022-09-17T15:58:25.584Z,1.40
2022-09-17T16:01:12.212Z,1.35
2022-09-17T16:03:39.604Z,2.30
2022-09-17T16:06:18.596Z,1.73
2022-09-17T16:08:47.709Z,1.27
2022-09-17T16:11:15.232Z,0.95
2022-09-17T16:13:42.135Z,1.15
2022-09-17T16:16:15.934Z,1.05
2022-09-17T16:18:42.900Z,1.15
2022-09-17T16:21:20.061Z,1.50
2022-09-17T16:23:46.955Z,1.20
2022-09-17T16:26:28.925Z,1.37
2022-09-17T16:29:07.073Z,1.00
2022-09-17T16:31:34.836Z,1.25
2022-09-17T16:34:01.805Z,1.70
2022-09-17T16:36:31.230Z,1.15
2022-09-17T16:38:59.813Z,1.20
2022-09-17T16:41:26.853Z,1.48
2022-09-17T16:43:54.063Z,1.50
2022-09-17T16:46:21.209Z,1.85
2022-09-17T16:48:51.293Z,1.35
2022-09-17T16:51:18.092Z,0.90
2022-09-17T16:53:44.932Z,0.93
2022-09-17T16:56:14.789Z,1.23
2022-09-17T17:01:09.540Z,0.70
2022-09-17T17:03:36.846Z,1.00
2022-09-17T17:06:03.838Z,1.15
2022-09-17T17:08:34.261Z,1.10
2022-09-17T17:11:02.252Z,1.42
2022-09-17T17:13:29.028Z,1.35
2022-09-17T17:15:56.452Z,0.90
2022-09-17T17:18:24.690Z,1.17
2022-09-17T17:20:51.808Z,1.00
2022-09-17T17:23:19.760Z,1.02
2022-09-17T17:25:47.101Z,1.50
2022-09-17T17:28:15.670Z,1.10
2022-09-17T17:30:46.745Z,1.40
2022-09-17T17:33:13.781Z,1.55
2022-09-17T17:35:40.617Z,1.20
2022-09-17T17:38:07.441Z,1.00
2022-09-17T17:40:34.645Z,1.20
2022-09-17T17:43:01.621Z,1.55
2022-09-17T17:45:28.601Z,1.73
2022-09-17T17:47:55.432Z,1.80
2022-09-17T17:50:22.221Z,3.50
2022-09-17T17:52:49.313Z,2.42
2022-09-17T17:55:16.801Z,1.70
2022-09-17T17:57:43.650Z,1.73
2022-09-17T18:00:12.748Z,1.30
2022-09-17T18:02:41.064Z,1.15
2022-09-17T18:05:08.367Z,1.02
2022-09-17T18:07:35.290Z,1.23
2022-09-17T18:10:02.235Z,1.55
2022-09-17T18:12:29.224Z,1.05
2022-09-17T18:14:56.099Z,1.35
2022-09-17T18:17:23.018Z,1.35
2022-09-17T18:19:51.590Z,1.40
2022-09-17T18:22:18.758Z,1.75
2022-09-17T18:24:46.699Z,1.40
2022-09-17T18:27:13.618Z,1.17
2022-09-17T18:29:41.151Z,1.27
2022-09-17T18:32:07.995Z,1.10
2022-09-17T18:34:39.035Z,1.27
2022-09-17T18:37:05.879Z,1.12
2022-09-17T18:42:23.867Z,0.90
2022-09-17T18:44:50.893Z,0.40
2022-09-17T18:47:17.867Z,0.75
2022-09-17T18:49:44.672Z,0.50
2022-09-17T18:52:11.442Z,0.50
2022-09-17T18:54:38.287Z,0.65
2022-09-17T18:57:05.244Z,0.70
2022-09-17T18:59:32.306Z,0.37
2022-09-17T19:01:59.418Z,0.40
2022-09-17T19:04:27.119Z,0.30
2022-09-17T19:06:53.920Z,0.40
2022-09-17T19:09:20.836Z,0.30
2022-09-17T19:11:47.876Z,0.32
2022-09-17T19:14:14.867Z,0.32
2022-09-17T19:16:41.796Z,0.40
2022-09-17T19:19:08.677Z,0.47
2022-09-17T19:21:35.452Z,0.30
2022-09-17T19:24:03.668Z,0.40
2022-09-17T19:26:30.926Z,0.28
2022-09-17T19:29:00.587Z,0.40
2022-09-17T19:31:28.395Z,0.30
2022-09-17T19:33:56.629Z,0.30
2022-09-17T19:36:23.433Z,0.28
2022-09-17T19:38:50.276Z,0.20
2022-09-17T19:41:23.402Z,0.30
2022-09-17T19:43:54.998Z,0.30
2022-09-17T19:46:24.382Z,0.73
2022-09-17T19:48:53.827Z,0.40
2022-09-17T19:51:22.162Z,0.73
2022-09-17T19:53:49.499Z,0.50
2022-09-17T19:56:19.301Z,0.20
2022-09-17T20:01:13.730Z,0.30
2022-09-17T20:03:42.603Z,0.22
2022-09-17T20:06:12.372Z,0.20
2022-09-17T20:11:15.406Z,0.20
2022-09-17T20:13:42.569Z,0.20
2022-09-17T20:16:15.250Z,0.50
2022-09-17T20:18:43.900Z,0.20
2022-09-17T20:21:20.107Z,0.28
2022-09-17T20:23:47.016Z,0.22
2022-09-17T20:26:14.400Z,0.40
2022-09-17T20:28:41.791Z,0.20
2022-09-17T20:31:17.297Z,0.20
2022-09-17T20:33:45.195Z,0.55
2022-09-17T20:36:14.149Z,0.30
2022-09-17T20:41:28.441Z,0.20
2022-09-17T20:43:55.502Z,0.40
2022-09-17T20:46:28.552Z,0.30
2022-09-17T20:48:57.885Z,0.25
2022-09-17T20:51:27.765Z,0.28
2022-09-17T20:53:55.203Z,0.30
2022-09-17T20:56:24.636Z,0.30
2022-09-17T20:59:13.400Z,0.30
2022-09-17T21:01:44.793Z,0.22
2022-09-17T21:04:15.199Z,0.15
2022-09-17T21:06:43.257Z,0.20
2022-09-17T21:09:12.386Z,0.20
2022-09-17T21:11:39.356Z,0.30
2022-09-17T21:14:06.169Z,0.40
2022-09-17T21:16:33.262Z,0.40
2022-09-17T21:19:03.688Z,0.60
2022-09-17T21:21:30.649Z,0.20
2022-09-17T21:24:05.232Z,0.30
2022-09-17T21:26:33.173Z,0.40
2022-09-17T21:28:59.921Z,0.60
2022-09-17T21:31:32.418Z,0.30
2022-09-17T21:34:02.377Z,0.30
2022-09-17T21:36:32.309Z,0.47
2022-09-17T21:39:01.613Z,0.30
2022-09-17T21:41:29.250Z,0.30
2022-09-17T21:43:56.100Z,0.40
2022-09-17T21:46:24.863Z,0.35
2022-09-17T21:48:54.271Z,0.20
2022-09-17T21:51:23.769Z,0.40
2022-09-17T21:53:52.520Z,0.52
2022-09-17T21:56:20.692Z,0.47
2022-09-17T21:58:52.062Z,0.50
2022-09-17T22:01:22.045Z,0.30
2022-09-17T22:03:49.705Z,0.40
2022-09-17T22:06:25.234Z,0.40
2022-09-17T22:08:52.192Z,0.40
2022-09-17T22:11:25.712Z,0.30
2022-09-17T22:14:05.048Z,0.30
2022-09-17T22:16:33.605Z,0.20
2022-09-17T22:19:00.472Z,0.40
2022-09-17T22:21:28.611Z,0.40
2022-09-17T22:23:57.006Z,0.40
2022-09-17T22:26:25.767Z,0.50
2022-09-17T22:28:53.219Z,0.40
2022-09-17T22:31:20.613Z,0.45
2022-09-17T22:33:48.805Z,0.60
2022-09-17T22:36:20.986Z,0.50
2022-09-17T22:39:06.446Z,0.55
2022-09-17T22:41:36.250Z,0.50
2022-09-17T22:46:34.279Z,1.95
2022-09-17T22:49:01.705Z,2.65
2022-09-17T22:51:30.369Z,2.20
2022-09-17T22:53:58.421Z,2.78
2022-09-17T22:56:27.358Z,2.22
2022-09-17T22:58:55.727Z,1.80
2022-09-17T23:01:25.311Z,2.20
2022-09-17T23:03:52.772Z,1.30
2022-09-17T23:06:22.187Z,1.12
2022-09-17T23:08:48.914Z,1.30
2022-09-17T23:11:22.224Z,0.90
2022-09-17T23:13:50.161Z,0.80
2022-09-17T23:16:17.884Z,0.60
2022-09-17T23:18:44.998Z,1.23
2022-09-17T23:21:14.506Z,1.60
2022-09-17T23:23:42.884Z,2.70
2022-09-17T23:26:12.906Z,2.20
2022-09-17T23:28:39.979Z,2.28
2022-09-17T23:31:15.570Z,1.58
2022-09-17T23:33:43.092Z,1.35
2022-09-17T23:36:15.440Z,1.70
2022-09-17T23:38:43.828Z,1.10
2022-09-17T23:41:17.252Z,0.70
2022-09-17T23:43:47.039Z,0.80
2022-09-17T23:46:14.346Z,0.55
2022-09-17T23:48:41.250Z,0.70
2022-09-17T23:51:08.777Z,0.55
2022-09-17T23:53:36.278Z,0.50
2022-09-17T23:56:05.241Z,0.30
2022-09-17T23:58:32.932Z,0.60
